KMEV

Minden-Tahoe Airport

Minden, Nevada, USA
METAR KMEV 182215Z AUTO 05009KT 030V090 10SM FEW040 SCT085 23/02 A3010 RMK AO2
Observed Flight Rules
Jun-18 @ 22:15 UTC (34 minutes ago) Visual Flight Rules
Wind Visibility Clouds
50° at 9 knots 10 miles
  • Few at 4,000' AGL
  • Scattered at 8,500' AGL
Temperatures Readings
Current 23°C / 73°F
Dewpoint 2°C / 36°F
Humidity 25%
Altimeter 30.1" Hg
Pressure 1019 hPa
Elevation 1439
METAR KMEV 182215Z AUTO 05009KT 030V090 10SM FEW040 SCT085 23/02 A3010 RMK AO2
Observed Flight Rules
Jun-18 @ 22:15 UTC
(34 minutes ago)
VFR
Wind Visibility
50° at 9 knots 10 miles
Clouds
  • Few at 4,000' AGL
  • Scattered at 8,500' AGL
Temperature Dewpoint
23°C / 73°F 2°C / 36°F
Humidity Altimeter Pressure
25% 30.1" Hg 1019 hPa